Time;durP1;ratioP1;P1;durP2;ratioP2;P2;SDS_P1;SDS_P2;PMS_P1;PMS_P2;Temp;Humidity;BMP_temperature;BMP_pressure;BME280_temperature;BME280_humidity;BME280_pressure;Samples;Min_cycle;Max_cycle;Signal;HPM_P1;HPM_P2
2021/05/03 00:00:48;;;;;;;4.20;1.88;;;;;;;;;;5038538;28;20134;-54
2021/05/03 00:03:13;;;;;;;4.40;2.03;;;;;;;;;;5040291;28;20071;-55
2021/05/03 00:05:45;;;;;;;3.95;1.77;;;;;;;;;;5039075;28;20460;-53
2021/05/03 00:08:10;;;;;;;3.25;1.40;;;;;;;;;;5035816;28;20551;-52
2021/05/03 00:10:35;;;;;;;2.30;2.10;;;;;;;;;;5044097;28;20126;-49
2021/05/03 00:13:00;;;;;;;3.20;2.08;;;;;;;;;;5038333;28;20695;-54
2021/05/03 00:15:26;;;;;;;2.53;2.28;;;;;;;;;;5037746;28;20017;-52
2021/05/03 00:17:51;;;;;;;2.47;0.93;;;;;;;;;;5035740;28;20143;-52
2021/05/03 00:20:16;;;;;;;4.80;2.10;;;;;;;;;;5031936;28;20022;-53
2021/05/03 00:22:41;;;;;;;2.60;2.00;;;;;;;;;;5038553;28;20056;-51
2021/05/03 00:25:07;;;;;;;3.47;2.00;;;;;;;;;;5026023;28;20372;-50
2021/05/03 00:27:32;;;;;;;3.85;1.90;;;;;;;;;;5027199;28;20109;-49
2021/05/03 00:29:57;;;;;;;2.88;1.83;;;;;;;;;;5038547;28;20029;-49
2021/05/03 00:32:23;;;;;;;4.05;2.17;;;;;;;;;;5051340;28;20016;-50
2021/05/03 00:34:48;;;;;;;2.95;1.95;;;;;;;;;;5038659;28;20017;-51
2021/05/03 00:37:13;;;;;;;3.70;2.20;;;;;;;;;;5035166;28;20420;-52
2021/05/03 00:39:38;;;;;;;6.20;2.22;;;;;;;;;;5038725;28;20480;-51
2021/05/03 00:42:04;;;;;;;3.10;2.05;;;;;;;;;;5037963;28;20033;-50
2021/05/03 00:44:29;;;;;;;3.22;2.03;;;;;;;;;;5038742;28;20472;-53
2021/05/03 00:46:56;;;;;;;2.80;2.00;;;;;;;;;;5036723;28;20376;-53
2021/05/03 00:49:21;;;;;;;2.55;1.80;;;;;;;;;;5036718;28;20025;-52
2021/05/03 00:51:47;;;;;;;2.37;1.97;;;;;;;;;;5029797;28;20028;-52
2021/05/03 00:54:12;;;;;;;3.30;2.15;;;;;;;;;;5038165;28;20025;-51
2021/05/03 00:56:37;;;;;;;3.50;2.28;;;;;;;;;;5038404;28;20044;-52
2021/05/03 00:59:03;;;;;;;4.65;2.60;;;;;;;;;;5043087;28;20017;-53
2021/05/03 01:01:28;;;;;;;3.72;1.90;;;;;;;;;;5050293;28;20118;-53
2021/05/03 01:03:53;;;;;;;4.00;2.10;;;;;;;;;;5039375;28;20109;-51
2021/05/03 01:06:18;;;;;;;4.40;2.17;;;;;;;;;;5038282;28;20108;-53
2021/05/03 01:08:44;;;;;;;4.20;2.43;;;;;;;;;;5035158;28;20052;-51
2021/05/03 01:11:10;;;;;;;2.70;1.80;;;;;;;;;;5048286;28;20021;-50
2021/05/03 01:13:35;;;;;;;4.03;1.70;;;;;;;;;;5037263;28;20488;-51
2021/05/03 01:16:00;;;;;;;2.03;1.50;;;;;;;;;;5031184;28;21079;-53
2021/05/03 01:18:28;;;;;;;2.80;1.80;;;;;;;;;;5031900;28;20566;-53
2021/05/03 01:20:54;;;;;;;3.53;2.60;;;;;;;;;;5034293;28;20071;-51
2021/05/03 01:23:20;;;;;;;2.10;1.83;;;;;;;;;;5034659;28;20026;-54
2021/05/03 01:25:45;;;;;;;2.93;1.77;;;;;;;;;;5034727;28;20531;-54
2021/05/03 01:28:10;;;;;;;2.50;1.83;;;;;;;;;;5032139;28;20013;-51
2021/05/03 01:30:37;;;;;;;3.00;1.87;;;;;;;;;;5036527;28;20400;-53
2021/05/03 01:33:03;;;;;;;3.03;1.77;;;;;;;;;;5041750;28;20041;-50
2021/05/03 01:35:28;;;;;;;2.10;1.50;;;;;;;;;;5034456;28;20485;-48
2021/05/03 01:37:54;;;;;;;2.93;1.70;;;;;;;;;;5039909;28;20028;-49
2021/05/03 01:40:20;;;;;;;3.33;1.53;;;;;;;;;;5042984;28;20131;-52
2021/05/03 01:42:46;;;;;;;4.00;2.17;;;;;;;;;;5034016;28;20088;-52
2021/05/03 01:45:12;;;;;;;4.27;2.27;;;;;;;;;;5034787;28;20075;-49
2021/05/03 01:47:39;;;;;;;2.23;1.80;;;;;;;;;;5037389;28;20048;-52
2021/05/03 01:50:04;;;;;;;3.47;1.60;;;;;;;;;;5038874;28;20021;-51
2021/05/03 01:52:29;;;;;;;3.27;2.17;;;;;;;;;;5034704;28;20029;-52
2021/05/03 01:54:55;;;;;;;1.87;1.70;;;;;;;;;;5034014;28;20033;-52
2021/05/03 01:57:21;;;;;;;2.77;1.50;;;;;;;;;;5031100;28;20156;-51
2021/05/03 01:59:48;;;;;;;2.63;1.90;;;;;;;;;;5034160;28;20465;-53
2021/05/03 02:02:13;;;;;;;3.37;1.70;;;;;;;;;;5033983;28;20025;-51
2021/05/03 02:04:38;;;;;;;2.03;1.50;;;;;;;;;;5034339;28;20028;-51
2021/05/03 02:07:03;;;;;;;3.00;1.77;;;;;;;;;;5031339;28;20120;-52
2021/05/03 02:09:28;;;;;;;3.77;2.20;;;;;;;;;;5033917;28;20484;-53
2021/05/03 02:11:54;;;;;;;5.03;1.73;;;;;;;;;;5047219;28;20421;-50
2021/05/03 02:14:19;;;;;;;1.53;1.40;;;;;;;;;;5034411;28;20383;-51
2021/05/03 02:16:44;;;;;;;2.87;2.07;;;;;;;;;;5033604;28;20461;-51
2021/05/03 02:19:09;;;;;;;2.37;1.43;;;;;;;;;;5031539;28;20048;-49
2021/05/03 02:21:35;;;;;;;2.67;1.70;;;;;;;;;;5033419;28;20033;-50
2021/05/03 02:24:00;;;;;;;3.90;1.90;;;;;;;;;;5033952;28;20045;-53
2021/05/03 02:26:25;;;;;;;2.10;1.57;;;;;;;;;;5033075;28;20465;-51
2021/05/03 02:28:51;;;;;;;3.50;1.40;;;;;;;;;;5030369;28;20067;-53
2021/05/03 02:31:17;;;;;;;2.63;1.40;;;;;;;;;;5033645;28;20029;-49
2021/05/03 02:33:42;;;;;;;2.30;1.57;;;;;;;;;;5033638;28;20029;-49
2021/05/03 02:36:07;;;;;;;1.47;0.60;;;;;;;;;;5033649;28;20048;-53
2021/05/03 02:38:32;;;;;;;3.83;1.53;;;;;;;;;;5037706;28;20025;-52
2021/05/03 02:40:58;;;;;;;2.53;1.30;;;;;;;;;;5033119;28;20393;-54
2021/05/03 02:43:23;;;;;;;2.23;1.60;;;;;;;;;;5033714;28;20100;-53
2021/05/03 02:45:48;;;;;;;2.83;1.33;;;;;;;;;;5033627;28;20021;-51
2021/05/03 02:48:14;;;;;;;5.17;1.73;;;;;;;;;;5030502;28;20076;-47
2021/05/03 02:50:39;;;;;;;3.90;1.50;;;;;;;;;;5033274;28;20033;-53
2021/05/03 02:53:04;;;;;;;2.00;0.80;;;;;;;;;;5032927;28;20025;-50
2021/05/03 02:55:29;;;;;;;2.37;1.50;;;;;;;;;;5033334;28;20021;-55
2021/05/03 02:57:55;;;;;;;2.70;1.50;;;;;;;;;;5029862;28;20423;-54
2021/05/03 03:00:22;;;;;;;2.37;1.57;;;;;;;;;;5032470;28;20112;-53
2021/05/03 03:02:48;;;;;;;1.83;1.47;;;;;;;;;;5022408;28;20105;-52
2021/05/03 03:05:13;;;;;;;3.17;1.43;;;;;;;;;;5035735;28;20052;-52
2021/05/03 03:07:38;;;;;;;2.53;1.50;;;;;;;;;;5050161;28;20017;-50
2021/05/03 03:10:04;;;;;;;2.33;1.30;;;;;;;;;;5042746;28;20037;-52
2021/05/03 03:12:29;;;;;;;2.27;1.47;;;;;;;;;;5034983;28;20040;-51
2021/05/03 03:14:54;;;;;;;1.47;1.20;;;;;;;;;;5033280;28;20064;-53
2021/05/03 03:17:19;;;;;;;3.17;1.60;;;;;;;;;;5029844;28;20713;-52
2021/05/03 03:19:45;;;;;;;2.30;1.63;;;;;;;;;;5032579;28;20021;-52
2021/05/03 03:22:10;;;;;;;1.97;1.33;;;;;;;;;;5032619;28;20056;-49
2021/05/03 03:24:35;;;;;;;3.37;1.50;;;;;;;;;;5032271;28;20108;-52
2021/05/03 03:27:01;;;;;;;3.43;1.70;;;;;;;;;;5030230;28;20193;-54
2021/05/03 03:29:27;;;;;;;1.73;1.40;;;;;;;;;;5031687;28;20022;-51
2021/05/03 03:31:52;;;;;;;2.27;1.77;;;;;;;;;;5032399;28;20022;-47
2021/05/03 03:34:17;;;;;;;2.40;1.63;;;;;;;;;;5032734;28;20147;-51
2021/05/03 03:36:42;;;;;;;2.53;1.70;;;;;;;;;;5032413;28;20017;-51
2021/05/03 03:39:08;;;;;;;3.57;1.37;;;;;;;;;;5029476;28;20037;-50
2021/05/03 03:41:33;;;;;;;3.53;1.43;;;;;;;;;;5031943;28;20030;-55
2021/05/03 03:43:59;;;;;;;2.67;1.60;;;;;;;;;;5032456;28;20057;-49
2021/05/03 03:46:25;;;;;;;3.47;1.80;;;;;;;;;;5038472;28;20028;-52
2021/05/03 03:48:50;;;;;;;3.77;1.63;;;;;;;;;;5039290;28;20498;-56
2021/05/03 03:51:15;;;;;;;2.90;1.67;;;;;;;;;;5032521;28;20036;-53
2021/05/03 03:53:41;;;;;;;4.33;1.90;;;;;;;;;;5032768;28;20025;-54
2021/05/03 03:56:06;;;;;;;4.37;1.00;;;;;;;;;;5032346;28;20028;-54
2021/05/03 03:58:31;;;;;;;2.70;1.40;;;;;;;;;;5032947;28;20539;-52
2021/05/03 04:00:56;;;;;;;1.80;1.70;;;;;;;;;;5032032;28;20029;-49
2021/05/03 04:03:24;;;;;;;3.30;1.97;;;;;;;;;;5032287;28;20025;-51
2021/05/03 04:08:56;;;;;;;1.80;1.67;;;;;;;;;;5028624;28;20050;-53
2021/05/03 04:27:00;;;;;;;2.57;1.80;;;;;;;;;;5029637;28;20152;-52
2021/05/03 04:29:26;;;;;;;1.77;1.60;;;;;;;;;;5031452;28;20101;-51
2021/05/03 04:31:51;;;;;;;1.60;1.33;;;;;;;;;;5031894;28;20384;-51
2021/05/03 04:34:16;;;;;;;4.30;1.50;;;;;;;;;;5032252;28;20548;-52
2021/05/03 04:36:41;;;;;;;2.30;1.73;;;;;;;;;;5031956;28;20021;-50
2021/05/03 04:39:06;;;;;;;2.30;2.10;;;;;;;;;;5029220;28;20021;-54
2021/05/03 04:41:32;;;;;;;3.33;1.63;;;;;;;;;;5031433;28;20526;-53
2021/05/03 04:43:57;;;;;;;2.97;1.63;;;;;;;;;;5031912;28;20040;-52
2021/05/03 04:46:22;;;;;;;2.33;2.00;;;;;;;;;;5031619;28;20029;-50
2021/05/03 04:48:49;;;;;;;2.00;1.70;;;;;;;;;;5028387;28;20021;-49
2021/05/03 04:51:14;;;;;;;3.47;1.73;;;;;;;;;;5034164;28;20036;-50
2021/05/03 04:53:40;;;;;;;2.30;1.98;;;;;;;;;;5041465;28;20021;-54
2021/05/03 04:56:05;;;;;;;3.17;1.90;;;;;;;;;;5055269;28;20045;-54
2021/05/03 04:58:30;;;;;;;2.53;2.10;;;;;;;;;;5038852;28;20025;-54
2021/05/03 05:00:55;;;;;;;5.60;2.17;;;;;;;;;;5034652;28;20396;-54
2021/05/03 05:03:21;;;;;;;3.60;2.07;;;;;;;;;;5035562;28;20083;-51
2021/05/03 05:05:49;;;;;;;2.73;2.27;;;;;;;;;;5039749;28;20032;-53
2021/05/03 05:08:14;;;;;;;2.97;1.70;;;;;;;;;;5032274;28;20124;-52
2021/05/03 05:10:40;;;;;;;3.97;2.57;;;;;;;;;;5043223;28;20112;-51
2021/05/03 05:13:05;;;;;;;3.60;2.33;;;;;;;;;;5034401;28;20389;-49
2021/05/03 05:15:30;;;;;;;3.15;2.05;;;;;;;;;;5034442;28;20099;-52
2021/05/03 05:17:55;;;;;;;3.33;2.73;;;;;;;;;;5031593;28;20067;-49
2021/05/03 05:20:21;;;;;;;3.07;2.13;;;;;;;;;;5034497;28;20062;-51
2021/05/03 05:22:46;;;;;;;2.42;1.92;;;;;;;;;;5034543;28;20033;-51
2021/05/03 05:25:12;;;;;;;3.83;2.43;;;;;;;;;;5034876;28;20024;-52
2021/05/03 05:27:37;;;;;;;2.22;2.03;;;;;;;;;;5036834;28;20366;-52
2021/05/03 05:30:04;;;;;;;3.53;1.95;;;;;;;;;;5041950;28;20440;-54
2021/05/03 05:32:29;;;;;;;2.40;2.20;;;;;;;;;;5032786;28;20171;-53
2021/05/03 05:34:54;;;;;;;5.57;0.88;;;;;;;;;;5037360;28;20025;-49
2021/05/03 05:37:20;;;;;;;4.30;2.05;;;;;;;;;;5038047;28;20095;-52
2021/05/03 05:39:46;;;;;;;3.67;2.00;;;;;;;;;;5034381;28;20092;-51
2021/05/03 05:42:12;;;;;;;1.50;1.00;;;;;;;;;;5034146;28;20022;-53
2021/05/03 05:44:37;;;;;;;4.43;2.20;;;;;;;;;;5029860;28;20017;-54
2021/05/03 05:47:02;;;;;;;1.10;0.85;;;;;;;;;;5031560;28;20248;-55
2021/05/03 05:49:27;;;;;;;2.03;0.95;;;;;;;;;;5034128;28;20412;-54
2021/05/03 05:51:53;;;;;;;2.63;1.70;;;;;;;;;;5033918;28;20022;-55
2021/05/03 05:54:18;;;;;;;4.88;1.42;;;;;;;;;;5033791;28;20080;-51
2021/05/03 05:56:43;;;;;;;3.05;0.95;;;;;;;;;;5036074;28;20083;-54
2021/05/03 05:59:09;;;;;;;3.25;1.20;;;;;;;;;;5039012;28;20017;-54
2021/05/03 06:01:34;;;;;;;2.55;1.70;;;;;;;;;;5033695;28;20029;-53
2021/05/03 06:03:59;;;;;;;1.95;1.35;;;;;;;;;;5038393;28;20022;-52
2021/05/03 06:06:24;;;;;;;4.00;2.17;;;;;;;;;;5041175;28;20013;-53
2021/05/03 06:08:50;;;;;;;2.67;1.48;;;;;;;;;;5044728;28;20041;-53
2021/05/03 06:11:15;;;;;;;3.70;1.42;;;;;;;;;;5039089;28;20025;-53
2021/05/03 06:13:40;;;;;;;1.95;1.60;;;;;;;;;;5033958;28;20026;-52
2021/05/03 06:16:06;;;;;;;2.05;1.13;;;;;;;;;;5041405;28;20067;-53
2021/05/03 06:18:31;;;;;;;1.38;1.17;;;;;;;;;;5041229;28;20147;-51
2021/05/03 06:20:56;;;;;;;3.63;1.75;;;;;;;;;;5038398;28;20016;-54
2021/05/03 06:23:21;;;;;;;3.70;1.52;;;;;;;;;;5043184;28;20013;-50
2021/05/03 06:25:47;;;;;;;4.15;1.83;;;;;;;;;;5038428;28;20456;-51
2021/05/03 06:28:12;;;;;;;2.53;2.20;;;;;;;;;;5030040;28;20473;-51
2021/05/03 06:30:37;;;;;;;1.73;1.50;;;;;;;;;;5033201;28;20097;-52
2021/05/03 06:33:03;;;;;;;4.63;1.48;;;;;;;;;;5033079;28;20021;-54
2021/05/03 06:35:29;;;;;;;3.60;2.28;;;;;;;;;;5031783;28;20029;-49
2021/05/03 06:37:54;;;;;;;2.80;1.13;;;;;;;;;;5029233;28;20487;-52
2021/05/03 06:40:20;;;;;;;2.60;1.15;;;;;;;;;;5033168;28;20032;-55
2021/05/03 06:42:48;;;;;;;2.58;1.58;;;;;;;;;;5032224;28;20025;-51
2021/05/03 06:45:13;;;;;;;5.72;1.58;;;;;;;;;;5031794;28;20021;-52
2021/05/03 06:47:39;;;;;;;1.80;1.50;;;;;;;;;;5029505;28;20419;-52
2021/05/03 06:50:06;;;;;;;3.05;1.92;;;;;;;;;;5032382;28;20472;-53
2021/05/03 06:52:31;;;;;;;2.03;1.27;;;;;;;;;;5032140;28;20484;-52
2021/05/03 06:54:57;;;;;;;3.92;1.77;;;;;;;;;;5033559;28;20108;-53
2021/05/03 06:57:22;;;;;;;3.53;2.13;;;;;;;;;;5029539;28;20414;-54
2021/05/03 06:59:47;;;;;;;4.13;3.20;;;;;;;;;;5042264;28;21355;-54
2021/05/03 07:02:13;;;;;;;4.15;1.55;;;;;;;;;;5031614;28;20033;-54
2021/05/03 07:04:38;;;;;;;2.53;1.00;;;;;;;;;;5033037;28;20021;-55
2021/05/03 07:07:04;;;;;;;3.42;1.65;;;;;;;;;;5029888;28;20317;-54
2021/05/03 07:09:29;;;;;;;2.25;1.05;;;;;;;;;;5031458;28;20267;-52
2021/05/03 07:11:56;;;;;;;2.17;1.55;;;;;;;;;;5031980;28;20017;-55
2021/05/03 07:14:21;;;;;;;1.83;0.95;;;;;;;;;;5031695;28;20033;-54
2021/05/03 07:16:46;;;;;;;1.88;0.93;;;;;;;;;;5031726;28;20023;-53
2021/05/03 07:19:12;;;;;;;1.88;1.40;;;;;;;;;;5029862;28;20025;-54
2021/05/03 07:21:37;;;;;;;1.95;0.90;;;;;;;;;;5031691;28;20511;-53
2021/05/03 07:24:03;;;;;;;2.92;1.80;;;;;;;;;;5030766;28;20025;-52
2021/05/03 07:26:29;;;;;;;2.55;1.17;;;;;;;;;;5031422;28;20059;-53
2021/05/03 07:28:54;;;;;;;2.88;1.15;;;;;;;;;;5029683;28;20104;-54
2021/05/03 07:31:19;;;;;;;2.50;1.27;;;;;;;;;;5031884;28;20059;-51
2021/05/03 07:33:45;;;;;;;1.73;1.15;;;;;;;;;;5031183;28;20156;-51
2021/05/03 07:36:10;;;;;;;0.98;0.40;;;;;;;;;;5030166;28;20465;-52
2021/05/03 07:38:36;;;;;;;3.38;0.82;;;;;;;;;;5028525;28;20072;-50
2021/05/03 07:41:01;;;;;;;4.25;1.63;;;;;;;;;;5031147;28;20021;-52
2021/05/03 07:43:26;;;;;;;2.50;1.88;;;;;;;;;;5030074;28;20017;-51
2021/05/03 07:45:51;;;;;;;2.83;0.85;;;;;;;;;;5034338;28;20025;-53
2021/05/03 07:48:17;;;;;;;3.03;1.42;;;;;;;;;;5025224;28;20140;-52
2021/05/03 07:50:43;;;;;;;1.85;1.40;;;;;;;;;;5027020;28;20034;-51
2021/05/03 07:53:08;;;;;;;1.70;1.38;;;;;;;;;;5028739;28;20439;-52
2021/05/03 07:55:33;;;;;;;1.77;1.00;;;;;;;;;;5032176;28;20033;-53
2021/05/03 07:58:00;;;;;;;0.73;0.63;;;;;;;;;;5028655;28;20476;-52
2021/05/03 08:00:25;;;;;;;3.70;0.80;;;;;;;;;;5031900;28;20029;-50
2021/05/03 08:02:50;;;;;;;1.45;0.77;;;;;;;;;;5024299;28;20022;-54
2021/05/03 08:05:15;;;;;;;2.45;1.30;;;;;;;;;;5030585;28;20013;-50
2021/05/03 08:07:41;;;;;;;1.42;0.98;;;;;;;;;;5034231;28;20476;-55
2021/05/03 08:10:06;;;;;;;2.17;1.38;;;;;;;;;;5031850;28;20465;-53
2021/05/03 08:12:32;;;;;;;3.10;1.63;;;;;;;;;;5031275;28;20625;-53
2021/05/03 08:14:59;;;;;;;1.02;0.70;;;;;;;;;;5031170;28;20436;-54
2021/05/03 08:17:24;;;;;;;1.27;0.55;;;;;;;;;;5028956;28;20034;-53
2021/05/03 08:19:51;;;;;;;1.88;0.93;;;;;;;;;;5020114;28;20025;-51
2021/05/03 08:22:16;;;;;;;2.92;0.75;;;;;;;;;;5032010;28;20461;-55
2021/05/03 08:24:41;;;;;;;1.02;0.65;;;;;;;;;;5034035;28;20018;-52
2021/05/03 08:27:07;;;;;;;0.80;0.47;;;;;;;;;;5033970;28;20444;-54
2021/05/03 08:29:33;;;;;;;6.00;1.20;;;;;;;;;;5038153;28;20021;-49
2021/05/03 08:31:58;;;;;;;1.85;0.45;;;;;;;;;;5035253;28;20061;-53
2021/05/03 08:34:24;;;;;;;1.58;0.77;;;;;;;;;;5038376;28;20456;-55
2021/05/03 08:36:52;;;;;;;1.33;0.50;;;;;;;;;;5043704;28;20029;-52
2021/05/03 08:39:17;;;;;;;0.50;0.30;;;;;;;;;;5039467;28;20021;-51
2021/05/03 08:41:43;;;;;;;0.52;0.43;;;;;;;;;;5050277;28;20088;-51
2021/05/03 08:44:08;;;;;;;1.17;0.88;;;;;;;;;;5046980;28;20018;-54
2021/05/03 08:46:38;;;;;;;1.13;0.63;;;;;;;;;;5035208;28;20024;-51
2021/05/03 08:51:43;;;;;;;1.83;1.15;;;;;;;;;;5035191;28;20021;-52
2021/05/03 08:56:46;;;;;;;1.30;0.45;;;;;;;;;;5034250;28;20029;-52
2021/05/03 08:59:12;;;;;;;0.98;0.40;;;;;;;;;;5033282;28;20109;-52
2021/05/03 09:01:37;;;;;;;2.88;0.60;;;;;;;;;;5035468;28;20017;-50
2021/05/03 09:04:03;;;;;;;2.45;0.80;;;;;;;;;;5035413;28;20446;-53
2021/05/03 09:06:28;;;;;;;3.15;0.52;;;;;;;;;;5035474;28;20032;-54
2021/05/03 09:09:06;;;;;;;1.58;0.50;;;;;;;;;;5031525;28;20416;-54
2021/05/03 09:11:33;;;;;;;0.68;0.38;;;;;;;;;;5034716;28;20029;-54
2021/05/03 09:14:08;;;;;;;0.68;0.32;;;;;;;;;;5034935;28;20057;-53
2021/05/03 09:16:40;;;;;;;0.82;0.25;;;;;;;;;;5046941;28;20060;-50
2021/05/03 09:19:05;;;;;;;1.55;0.43;;;;;;;;;;5031512;28;20067;-53
2021/05/03 09:21:32;;;;;;;1.25;0.30;;;;;;;;;;5034456;28;20025;-51
2021/05/03 09:24:01;;;;;;;1.85;0.30;;;;;;;;;;5035265;28;20100;-52
2021/05/03 09:26:32;;;;;;;2.30;0.30;;;;;;;;;;5033117;28;20114;-53
2021/05/03 09:28:58;;;;;;;0.88;0.20;;;;;;;;;;5034169;28;20016;-55
2021/05/03 09:31:23;;;;;;;2.15;0.52;;;;;;;;;;5035488;28;20025;-51
2021/05/03 09:33:50;;;;;;;0.40;0.20;;;;;;;;;;5046919;28;20029;-52
2021/05/03 09:36:18;;;;;;;0.20;0.10;;;;;;;;;;5034455;28;20022;-50
2021/05/03 09:38:46;;;;;;;0.47;0.20;;;;;;;;;;5031570;28;20395;-51
2021/05/03 09:41:12;;;;;;;1.90;0.30;;;;;;;;;;5033780;28;20041;-49
2021/05/03 09:43:38;;;;;;;0.65;0.30;;;;;;;;;;5034642;28;20017;-50
2021/05/03 09:46:22;;;;;;;1.80;0.35;;;;;;;;;;5034983;28;20083;-52
2021/05/03 09:48:47;;;;;;;2.90;0.30;;;;;;;;;;5029024;28;20021;-51
2021/05/03 09:51:27;;;;;;;0.70;0.47;;;;;;;;;;5052321;28;20021;-54
2021/05/03 09:54:06;;;;;;;0.22;0.20;;;;;;;;;;5033972;28;20016;-55
2021/05/03 09:56:50;;;;;;;0.60;0.40;;;;;;;;;;5028739;28;20139;-50
2021/05/03 09:59:25;;;;;;;0.85;0.30;;;;;;;;;;5030880;28;20017;-54
2021/05/03 10:04:36;;;;;;;0.25;0.20;;;;;;;;;;5029469;28;19916;-53
2021/05/03 10:07:01;;;;;;;0.52;0.13;;;;;;;;;;5036709;28;20033;-52
2021/05/03 10:09:29;;;;;;;0.30;0.30;;;;;;;;;;5032837;28;20421;-51
2021/05/03 10:11:54;;;;;;;0.63;0.30;;;;;;;;;;5032352;28;20480;-54
2021/05/03 10:14:20;;;;;;;0.70;0.20;;;;;;;;;;5033650;28;20049;-58
2021/05/03 10:16:46;;;;;;;0.40;0.20;;;;;;;;;;5032944;28;20022;-53
2021/05/03 10:19:12;;;;;;;0.47;0.28;;;;;;;;;;5048118;28;20021;-51
2021/05/03 10:21:37;;;;;;;1.38;0.40;;;;;;;;;;5036856;28;20027;-54
2021/05/03 10:24:03;;;;;;;0.88;0.40;;;;;;;;;;5037076;28;20491;-54
2021/05/03 10:26:29;;;;;;;2.05;0.77;;;;;;;;;;5028043;28;20048;-54
2021/05/03 10:28:56;;;;;;;0.22;0.20;;;;;;;;;;5029069;28;20020;-54
2021/05/03 10:31:21;;;;;;;0.80;0.30;;;;;;;;;;5045892;28;20045;-54
2021/05/03 10:33:47;;;;;;;1.88;0.50;;;;;;;;;;5039606;28;20147;-53
2021/05/03 10:36:30;;;;;;;1.08;0.28;;;;;;;;;;5041864;28;20071;-51
2021/05/03 10:38:55;;;;;;;0.80;0.30;;;;;;;;;;5045113;28;20021;-52
2021/05/03 10:41:20;;;;;;;0.90;0.60;;;;;;;;;;5032161;28;20048;-54
2021/05/03 10:43:45;;;;;;;0.95;0.60;;;;;;;;;;5037320;28;20020;-55
2021/05/03 10:52:15;;;;;;;0.82;0.30;;;;;;;;;;5035826;28;20048;-54
2021/05/03 10:56:54;;;;;;;1.50;0.60;;;;;;;;;;5026882;28;20029;-53
2021/05/03 10:59:19;;;;;;;0.50;0.20;;;;;;;;;;5031854;28;20024;-50
2021/05/03 11:01:54;;;;;;;1.15;0.35;;;;;;;;;;5033748;28;20033;-52
2021/05/03 11:04:28;;;;;;;1.25;0.35;;;;;;;;;;5045322;28;20456;-53
2021/05/03 11:06:56;;;;;;;1.10;0.40;;;;;;;;;;5037186;28;20388;-53
2021/05/03 11:11:53;;;;;;;0.40;0.40;;;;;;;;;;5038589;28;20163;-53
2021/05/03 11:14:22;;;;;;;0.43;0.30;;;;;;;;;;5036229;28;20135;-51
2021/05/03 11:16:48;;;;;;;0.90;0.40;;;;;;;;;;5034785;28;20021;-51
2021/05/03 11:19:39;;;;;;;0.73;0.32;;;;;;;;;;5016446;28;20064;-52
2021/05/03 11:22:06;;;;;;;0.75;0.57;;;;;;;;;;5031690;28;20472;-50
2021/05/03 11:24:43;;;;;;;0.60;0.30;;;;;;;;;;5032103;28;20029;-52
2021/05/03 11:32:08;;;;;;;0.85;0.30;;;;;;;;;;5036960;28;20067;-52
2021/05/03 11:34:43;;;;;;;0.30;0.30;;;;;;;;;;5039337;28;20021;-55
2021/05/03 11:37:13;;;;;;;1.95;0.57;;;;;;;;;;5029528;28;20555;-49
2021/05/03 11:39:53;;;;;;;0.40;0.30;;;;;;;;;;5033307;28;20163;-54
2021/05/03 11:44:50;;;;;;;1.17;0.50;;;;;;;;;;5032609;28;20045;-49
2021/05/03 11:47:15;;;;;;;1.48;0.60;;;;;;;;;;5030542;28;20237;-51
2021/05/03 11:49:42;;;;;;;1.10;0.40;;;;;;;;;;5034301;28;20377;-53
2021/05/03 11:52:07;;;;;;;1.35;0.45;;;;;;;;;;5031740;28;20055;-49
2021/05/03 11:54:33;;;;;;;2.05;0.70;;;;;;;;;;5042385;28;20493;-50
2021/05/03 11:57:00;;;;;;;1.13;0.50;;;;;;;;;;5030145;28;20445;-52
2021/05/03 11:59:26;;;;;;;0.55;0.40;;;;;;;;;;5031282;28;20053;-52
2021/05/03 12:02:01;;;;;;;0.50;0.40;;;;;;;;;;5030802;28;20056;-53
2021/05/03 12:04:37;;;;;;;0.70;0.70;;;;;;;;;;5034970;28;20021;-54
2021/05/03 12:07:25;;;;;;;1.15;0.40;;;;;;;;;;5043665;28;20256;-51
2021/05/03 12:10:11;;;;;;;1.95;0.50;;;;;;;;;;5020210;28;20095;-50
2021/05/03 12:12:37;;;;;;;0.60;0.60;;;;;;;;;;5030864;28;20032;-55
2021/05/03 12:15:07;;;;;;;1.05;0.28;;;;;;;;;;5040563;28;20029;-54
2021/05/03 12:17:33;;;;;;;0.68;0.40;;;;;;;;;;5032605;28;20026;-53
2021/05/03 12:20:01;;;;;;;0.57;0.57;;;;;;;;;;5021120;28;20032;-52
2021/05/03 12:22:26;;;;;;;0.57;0.57;;;;;;;;;;5032902;28;20013;-51
2021/05/03 12:24:54;;;;;;;0.38;0.35;;;;;;;;;;5031747;28;20040;-53
2021/05/03 12:27:19;;;;;;;1.80;0.73;;;;;;;;;;5028887;28;20416;-53
2021/05/03 12:29:46;;;;;;;0.98;0.45;;;;;;;;;;5031186;28;20014;-54
2021/05/03 12:32:18;;;;;;;0.60;0.50;;;;;;;;;;5030365;28;20017;-53
2021/05/03 12:34:49;;;;;;;1.23;0.68;;;;;;;;;;5040132;28;20032;-52
2021/05/03 12:37:19;;;;;;;0.80;0.80;;;;;;;;;;5039250;28;20013;-52
2021/05/03 12:39:57;;;;;;;0.93;0.40;;;;;;;;;;5036313;28;20021;-52
2021/05/03 12:42:23;;;;;;;0.82;0.50;;;;;;;;;;5036550;28;20031;-54
2021/05/03 12:44:52;;;;;;;0.60;0.60;;;;;;;;;;5030485;28;20100;-51
2021/05/03 12:47:21;;;;;;;2.80;0.52;;;;;;;;;;5044397;28;20025;-52
2021/05/03 12:49:53;;;;;;;1.23;0.43;;;;;;;;;;5036735;28;20067;-53
2021/05/03 12:52:25;;;;;;;0.88;0.55;;;;;;;;;;5033586;28;20083;-52
2021/05/03 12:55:02;;;;;;;2.15;0.70;;;;;;;;;;5036880;28;20056;-53
2021/05/03 12:57:56;;;;;;;0.80;0.50;;;;;;;;;;5035295;28;20014;-53
2021/05/03 13:00:26;;;;;;;0.70;0.63;;;;;;;;;;5035005;28;20555;-50
2021/05/03 13:03:03;;;;;;;0.45;0.38;;;;;;;;;;5031347;28;20021;-55
2021/05/03 13:05:36;;;;;;;0.77;0.50;;;;;;;;;;5046830;28;20032;-52
2021/05/03 13:11:00;;;;;;;1.88;0.70;;;;;;;;;;5037841;28;20018;-52
2021/05/03 13:25:08;;;;;;;1.15;0.60;;;;;;;;;;5048085;28;20029;-53
2021/05/03 13:30:19;;;;;;;1.50;0.60;;;;;;;;;;5041156;28;20443;-51
2021/05/03 13:32:44;;;;;;;0.82;0.50;;;;;;;;;;5050875;28;20496;-53
2021/05/03 13:35:10;;;;;;;0.73;0.30;;;;;;;;;;5049847;28;20035;-50
2021/05/03 13:37:35;;;;;;;0.52;0.43;;;;;;;;;;5047435;28;20033;-51
2021/05/03 13:40:00;;;;;;;1.13;0.70;;;;;;;;;;5051478;28;20025;-54
2021/05/03 13:42:25;;;;;;;0.55;0.40;;;;;;;;;;5049916;28;20033;-51
2021/05/03 13:44:51;;;;;;;0.73;0.65;;;;;;;;;;5051367;28;20029;-52
2021/05/03 13:47:16;;;;;;;1.77;0.65;;;;;;;;;;5048265;28;20364;-53
2021/05/03 13:49:41;;;;;;;0.80;0.50;;;;;;;;;;5052327;28;20037;-51
2021/05/03 13:52:08;;;;;;;0.70;0.70;;;;;;;;;;5050276;28;20464;-50
2021/05/03 13:54:34;;;;;;;0.82;0.47;;;;;;;;;;5048625;28;20484;-50
2021/05/03 13:57:00;;;;;;;1.73;0.50;;;;;;;;;;5036498;28;20132;-54
2021/05/03 13:59:25;;;;;;;0.75;0.63;;;;;;;;;;5045982;28;20064;-53
2021/05/03 14:01:51;;;;;;;0.93;0.50;;;;;;;;;;5042454;28;20065;-55
2021/05/03 14:04:16;;;;;;;0.90;0.50;;;;;;;;;;5032867;28;20091;-53
2021/05/03 14:06:42;;;;;;;1.60;0.52;;;;;;;;;;5034354;28;20024;-51
2021/05/03 14:09:07;;;;;;;0.77;0.50;;;;;;;;;;5049155;28;20045;-52
2021/05/03 14:11:33;;;;;;;1.67;0.40;;;;;;;;;;5036977;28;20018;-53
2021/05/03 14:13:58;;;;;;;0.60;0.50;;;;;;;;;;5039877;28;20530;-54
2021/05/03 14:16:23;;;;;;;0.35;0.20;;;;;;;;;;5045827;28;20092;-54
2021/05/03 14:18:49;;;;;;;0.68;0.45;;;;;;;;;;5050022;28;20059;-53
2021/05/03 14:21:16;;;;;;;0.40;0.40;;;;;;;;;;5051356;28;20021;-48
2021/05/03 14:23:41;;;;;;;1.30;0.50;;;;;;;;;;5050553;28;20021;-54
2021/05/03 14:26:08;;;;;;;2.58;2.05;;;;;;;;;;5045679;28;20481;-53
2021/05/03 14:31:05;;;;;;;4.47;0.85;;;;;;;;;;5049493;28;20381;-52
2021/05/03 14:33:34;;;;;;;1.10;0.50;;;;;;;;;;5044659;28;20120;-54
2021/05/03 14:36:03;;;;;;;0.40;0.30;;;;;;;;;;5035392;28;20044;-53
2021/05/03 14:38:29;;;;;;;1.05;0.40;;;;;;;;;;5030989;28;20025;-53
2021/05/03 14:40:54;;;;;;;0.93;0.50;;;;;;;;;;5032779;28;20082;-51
2021/05/03 14:43:19;;;;;;;1.13;0.50;;;;;;;;;;5028562;28;20026;-53
2021/05/03 14:45:57;;;;;;;0.57;0.43;;;;;;;;;;5041077;28;20013;-53
2021/05/03 14:53:38;;;;;;;0.60;0.50;;;;;;;;;;5034329;28;20030;-55
2021/05/03 14:56:04;;;;;;;0.60;0.60;;;;;;;;;;5026951;28;20480;-52
2021/05/03 14:58:29;;;;;;;1.45;0.50;;;;;;;;;;5039243;28;20017;-52
2021/05/03 15:00:55;;;;;;;0.70;0.40;;;;;;;;;;5041285;28;20028;-49
2021/05/03 15:03:20;;;;;;;1.25;0.30;;;;;;;;;;5032220;28;20029;-51
2021/05/03 15:05:49;;;;;;;1.65;0.32;;;;;;;;;;5031745;28;20025;-53
2021/05/03 15:08:15;;;;;;;1.63;0.60;;;;;;;;;;5034032;28;20392;-48
2021/05/03 15:10:42;;;;;;;0.80;0.50;;;;;;;;;;5032764;28;20025;-52
2021/05/03 15:13:12;;;;;;;0.80;0.50;;;;;;;;;;5038176;28;20057;-54
2021/05/03 15:23:23;;;;;;;1.30;0.50;;;;;;;;;;5030752;28;20098;-52
2021/05/03 15:25:53;;;;;;;0.85;0.30;;;;;;;;;;5030665;28;20497;-53
2021/05/03 15:28:29;;;;;;;0.75;0.50;;;;;;;;;;5028588;28;20523;-54
2021/05/03 15:31:05;;;;;;;1.55;0.70;;;;;;;;;;5023176;28;20024;-51
2021/05/03 15:33:38;;;;;;;1.10;0.60;;;;;;;;;;5030735;28;20053;-53
2021/05/03 15:36:04;;;;;;;0.85;0.38;;;;;;;;;;5028160;28;20109;-55
2021/05/03 15:38:30;;;;;;;0.98;0.47;;;;;;;;;;5025078;28;20040;-52
2021/05/03 15:40:56;;;;;;;0.60;0.52;;;;;;;;;;5031027;28;20079;-54
2021/05/03 15:43:24;;;;;;;0.82;0.30;;;;;;;;;;5030890;28;20100;-52
2021/05/03 15:45:50;;;;;;;0.55;0.40;;;;;;;;;;5030520;28;20076;-53
2021/05/03 15:48:16;;;;;;;0.80;0.30;;;;;;;;;;5028425;28;20021;-54
2021/05/03 15:50:41;;;;;;;1.15;0.30;;;;;;;;;;5028717;28;20105;-53
2021/05/03 15:53:06;;;;;;;2.65;0.20;;;;;;;;;;5027819;28;20100;-52
2021/05/03 15:55:31;;;;;;;0.30;0.30;;;;;;;;;;5034476;28;20025;-49
2021/05/03 15:57:57;;;;;;;1.48;0.55;;;;;;;;;;5026811;28;20033;-55